createdAt,value
2018-05-17T00:00:27.754Z,4.70
2018-05-17T00:01:27.686Z,5.00
2018-05-17T00:02:27.627Z,4.80
2018-05-17T00:03:27.558Z,4.70
2018-05-17T00:04:27.505Z,4.70
2018-05-17T00:05:27.435Z,4.60
2018-05-17T00:06:27.359Z,4.40
2018-05-17T00:07:27.300Z,4.80
2018-05-17T00:08:27.220Z,4.60
2018-05-17T00:09:27.160Z,4.70
2018-05-17T00:10:27.090Z,4.80
2018-05-17T00:11:27.042Z,4.50
2018-05-17T00:12:26.964Z,4.90
2018-05-17T00:13:26.920Z,4.80
2018-05-17T00:14:26.836Z,5.00
2018-05-17T00:15:26.771Z,4.90
2018-05-17T00:16:26.697Z,5.00
2018-05-17T00:17:26.650Z,4.90
2018-05-17T00:18:26.562Z,5.10
2018-05-17T00:19:26.506Z,4.60
2018-05-17T00:20:26.441Z,4.80
2018-05-17T00:21:26.377Z,4.90
2018-05-17T00:22:26.310Z,5.40
2018-05-17T00:23:26.245Z,5.20
2018-05-17T00:24:26.182Z,5.10
2018-05-17T00:25:26.110Z,5.10
2018-05-17T00:26:26.049Z,5.20
2018-05-17T00:27:25.984Z,5.30
2018-05-17T00:28:25.920Z,5.40
2018-05-17T00:29:25.844Z,5.00
2018-05-17T00:30:25.776Z,5.10
2018-05-17T00:31:25.749Z,5.60
2018-05-17T00:32:25.648Z,5.30
2018-05-17T00:33:25.588Z,5.50
2018-05-17T00:34:25.543Z,5.50
2018-05-17T00:35:25.462Z,5.10
2018-05-17T00:36:25.380Z,6.00
2018-05-17T00:37:25.317Z,5.50
2018-05-17T00:38:25.248Z,5.50
2018-05-17T00:39:25.190Z,5.50
2018-05-17T00:40:25.118Z,5.50
2018-05-17T00:41:25.050Z,5.30
2018-05-17T00:42:24.984Z,5.70
2018-05-17T00:43:24.937Z,5.10
2018-05-17T00:44:24.869Z,5.20
2018-05-17T00:45:24.793Z,5.30
2018-05-17T00:46:24.743Z,5.60
2018-05-17T00:47:24.666Z,5.80
2018-05-17T00:48:24.598Z,5.50
2018-05-17T00:49:24.526Z,5.80
2018-05-17T00:50:24.479Z,5.80
2018-05-17T00:51:24.400Z,5.20
2018-05-17T00:52:24.341Z,5.40
2018-05-17T00:53:24.275Z,5.50
2018-05-17T00:54:24.212Z,5.40
2018-05-17T00:55:24.134Z,5.40
2018-05-17T00:56:24.077Z,5.40
2018-05-17T00:57:24.010Z,5.90
2018-05-17T00:58:23.948Z,5.60
2018-05-17T00:59:23.872Z,5.30
2018-05-17T01:00:23.813Z,5.00
2018-05-17T01:01:23.751Z,4.90
2018-05-17T01:02:23.676Z,5.10
2018-05-17T01:03:23.616Z,5.40
2018-05-17T01:04:23.556Z,5.30
2018-05-17T01:05:23.493Z,5.20
2018-05-17T01:06:23.428Z,5.10
2018-05-17T01:07:23.351Z,5.20
2018-05-17T01:08:23.288Z,5.20
2018-05-17T01:09:23.226Z,5.10
2018-05-17T01:10:23.190Z,5.10
2018-05-17T01:11:23.095Z,5.40
2018-05-17T01:12:23.030Z,5.00
2018-05-17T01:13:22.952Z,5.30
2018-05-17T01:14:22.884Z,5.20
2018-05-17T01:15:22.827Z,5.60
2018-05-17T01:16:22.760Z,5.00
2018-05-17T01:17:22.699Z,5.30
2018-05-17T01:18:22.623Z,5.50
2018-05-17T01:19:22.576Z,5.40
2018-05-17T01:20:22.498Z,5.20
2018-05-17T01:21:22.429Z,5.70
2018-05-17T01:22:22.352Z,5.60
2018-05-17T01:23:22.303Z,5.40
2018-05-17T01:24:22.220Z,5.40
2018-05-17T01:25:22.153Z,5.40
2018-05-17T01:26:22.102Z,5.30
2018-05-17T01:27:22.034Z,5.50
2018-05-17T01:28:21.956Z,5.60
2018-05-17T01:29:21.903Z,5.60
2018-05-17T01:30:21.841Z,5.40
2018-05-17T01:31:21.767Z,5.30
2018-05-17T01:32:21.705Z,5.30
2018-05-17T01:33:21.646Z,5.50
2018-05-17T01:34:21.574Z,5.70
2018-05-17T01:35:21.506Z,5.20
2018-05-17T01:36:21.439Z,5.40
2018-05-17T01:37:21.358Z,5.80
2018-05-17T01:38:21.304Z,5.60
2018-05-17T01:39:21.238Z,5.90
2018-05-17T01:40:21.178Z,5.90
2018-05-17T01:41:21.106Z,5.60
2018-05-17T01:42:21.047Z,5.10
2018-05-17T01:43:20.967Z,5.50
2018-05-17T01:44:20.910Z,5.20
2018-05-17T01:45:20.842Z,5.40
2018-05-17T01:46:20.767Z,6.10
2018-05-17T01:47:20.697Z,5.90
2018-05-17T01:48:20.649Z,5.30
2018-05-17T01:49:20.572Z,5.20
2018-05-17T01:50:20.511Z,5.80
2018-05-17T01:51:20.444Z,5.50
2018-05-17T01:52:20.382Z,5.70
2018-05-17T01:53:20.313Z,5.70
2018-05-17T01:54:20.251Z,5.50
2018-05-17T01:55:20.176Z,5.40
2018-05-17T01:56:20.119Z,5.70
2018-05-17T01:57:20.036Z,5.90
2018-05-17T01:58:19.992Z,5.80
2018-05-17T01:59:19.917Z,5.90
2018-05-17T02:00:19.855Z,5.80
2018-05-17T02:01:19.789Z,5.60
2018-05-17T02:02:19.730Z,6.00
2018-05-17T02:03:19.695Z,5.60
2018-05-17T02:04:19.585Z,5.60
2018-05-17T02:05:19.525Z,5.50
2018-05-17T02:06:19.455Z,5.80
2018-05-17T02:07:19.377Z,6.20
2018-05-17T02:08:19.323Z,6.00
2018-05-17T02:09:19.258Z,5.60
2018-05-17T02:10:19.193Z,5.60
2018-05-17T02:11:19.127Z,5.90
2018-05-17T02:12:19.061Z,6.00
2018-05-17T02:13:18.980Z,5.80
2018-05-17T02:14:18.963Z,6.10
2018-05-17T02:15:18.860Z,5.90
2018-05-17T02:16:18.798Z,6.20
2018-05-17T02:17:18.729Z,5.90
2018-05-17T02:18:18.661Z,6.10
2018-05-17T02:19:18.599Z,6.30
2018-05-17T02:20:18.535Z,5.90
2018-05-17T02:21:18.461Z,6.60
2018-05-17T02:22:18.392Z,6.40
2018-05-17T02:23:18.318Z,6.20
2018-05-17T02:24:18.274Z,6.00
2018-05-17T02:25:18.207Z,6.40
2018-05-17T02:26:18.128Z,6.30
2018-05-17T02:27:18.063Z,6.40
2018-05-17T02:28:17.998Z,6.60
2018-05-17T02:29:17.931Z,6.30
2018-05-17T02:30:17.870Z,6.50
2018-05-17T02:31:17.788Z,6.10
2018-05-17T02:32:17.734Z,6.50
2018-05-17T02:33:17.673Z,6.20
2018-05-17T02:34:17.606Z,6.50
2018-05-17T02:35:17.524Z,6.60
2018-05-17T02:36:17.477Z,6.40
2018-05-17T02:37:17.409Z,6.60
2018-05-17T02:38:17.338Z,6.30
2018-05-17T02:39:17.274Z,6.20
2018-05-17T02:40:17.206Z,6.30
2018-05-17T02:41:17.140Z,6.40
2018-05-17T02:42:17.078Z,6.20
2018-05-17T02:43:17.020Z,6.30
2018-05-17T02:44:16.943Z,6.70
2018-05-17T02:45:16.867Z,6.60
2018-05-17T02:46:16.810Z,5.90
2018-05-17T02:47:16.739Z,7.00
2018-05-17T02:48:16.684Z,6.90
2018-05-17T02:49:16.724Z,6.40
2018-05-17T02:50:16.544Z,6.50
2018-05-17T02:51:16.477Z,6.70
2018-05-17T02:52:16.407Z,6.70
2018-05-17T02:53:16.355Z,6.80
2018-05-17T02:54:16.289Z,6.80
2018-05-17T02:55:16.215Z,7.10
2018-05-17T02:56:16.144Z,7.30
2018-05-17T02:57:16.088Z,6.60
2018-05-17T02:58:16.014Z,6.80
2018-05-17T02:59:15.953Z,6.50
2018-05-17T03:00:15.878Z,6.60
2018-05-17T03:01:15.815Z,6.60
2018-05-17T03:02:15.736Z,6.80
2018-05-17T03:03:15.676Z,6.60
2018-05-17T03:04:15.612Z,6.80
2018-05-17T03:05:15.552Z,7.40
2018-05-17T03:06:15.493Z,6.90
2018-05-17T03:07:15.427Z,7.20
2018-05-17T03:08:15.364Z,6.70
2018-05-17T03:09:15.291Z,6.90
2018-05-17T03:10:15.226Z,6.50
2018-05-17T03:11:15.151Z,7.30
2018-05-17T03:12:15.098Z,6.90
2018-05-17T03:13:15.012Z,6.70
2018-05-17T03:14:14.948Z,7.20
2018-05-17T03:15:14.888Z,7.20
2018-05-17T03:16:14.818Z,7.20
2018-05-17T03:17:14.763Z,6.90
2018-05-17T03:18:14.692Z,7.10
2018-05-17T03:19:14.626Z,6.80
2018-05-17T03:20:14.551Z,6.60
2018-05-17T03:21:14.490Z,6.80
2018-05-17T03:22:14.416Z,7.10
2018-05-17T03:23:14.364Z,6.40
2018-05-17T03:24:14.296Z,7.10
2018-05-17T03:25:14.247Z,7.00
2018-05-17T03:26:14.156Z,7.00
2018-05-17T03:27:14.096Z,6.80
2018-05-17T03:28:14.026Z,6.80
2018-05-17T03:29:13.958Z,7.00
2018-05-17T03:30:13.887Z,6.90
2018-05-17T03:31:13.816Z,6.60
2018-05-17T03:32:13.747Z,6.60
2018-05-17T03:33:13.686Z,6.40
2018-05-17T03:34:13.625Z,7.70
2018-05-17T03:35:13.563Z,6.90
2018-05-17T03:36:13.500Z,7.00
2018-05-17T03:37:13.424Z,6.80
2018-05-17T03:38:13.362Z,6.90
2018-05-17T03:39:13.298Z,7.10
2018-05-17T03:40:13.232Z,7.00
2018-05-17T03:41:13.164Z,6.60
2018-05-17T03:42:13.107Z,7.40
2018-05-17T03:43:13.037Z,7.10
2018-05-17T03:44:12.963Z,7.30
2018-05-17T03:45:12.922Z,7.10
2018-05-17T03:46:12.840Z,7.10
2018-05-17T03:47:12.776Z,7.30
2018-05-17T03:48:12.707Z,7.10
2018-05-17T03:49:12.624Z,7.40
2018-05-17T03:50:12.567Z,6.60
2018-05-17T03:51:12.501Z,7.50
2018-05-17T03:52:12.445Z,7.10
2018-05-17T03:53:12.381Z,7.30
2018-05-17T03:54:12.306Z,6.40
2018-05-17T03:55:12.237Z,6.90
2018-05-17T03:56:12.168Z,6.90
2018-05-17T03:57:12.106Z,7.10
2018-05-17T03:58:12.030Z,7.10
2018-05-17T03:59:11.981Z,6.60
2018-05-17T04:00:11.923Z,7.30
2018-05-17T04:01:11.915Z,6.80
2018-05-17T04:02:11.774Z,6.90
2018-05-17T04:03:11.714Z,6.80
2018-05-17T04:04:11.644Z,7.00
2018-05-17T04:05:11.635Z,7.00
2018-05-17T04:06:11.516Z,7.00
2018-05-17T04:07:11.452Z,6.60
2018-05-17T04:08:11.375Z,6.50
2018-05-17T04:09:11.308Z,6.90
2018-05-17T04:10:11.240Z,7.40
2018-05-17T04:11:11.172Z,7.40
2018-05-17T04:12:11.119Z,6.40
2018-05-17T04:13:11.039Z,7.20
2018-05-17T04:14:10.987Z,7.20
2018-05-17T04:15:10.917Z,6.70
2018-05-17T04:16:10.838Z,7.10
2018-05-17T04:17:10.776Z,6.70
2018-05-17T04:18:10.716Z,7.20
2018-05-17T04:19:10.651Z,6.90
2018-05-17T04:20:10.586Z,6.80
2018-05-17T04:21:10.520Z,7.00
2018-05-17T04:22:10.455Z,7.00
2018-05-17T04:23:10.395Z,7.10
2018-05-17T04:24:10.322Z,7.20
2018-05-17T04:25:10.254Z,7.00
2018-05-17T04:26:10.195Z,6.80
2018-05-17T04:27:10.127Z,7.20
2018-05-17T04:28:10.061Z,7.30
2018-05-17T04:29:10.015Z,7.30
2018-05-17T04:30:09.954Z,7.20
2018-05-17T04:31:09.854Z,7.10
2018-05-17T04:32:09.784Z,6.80
2018-05-17T04:33:09.728Z,7.00
2018-05-17T04:34:09.681Z,7.40
2018-05-17T04:35:09.586Z,7.60
2018-05-17T04:36:09.515Z,7.50
2018-05-17T04:37:09.452Z,7.10
2018-05-17T04:38:09.390Z,7.70
2018-05-17T04:39:09.332Z,7.20
2018-05-17T04:40:09.250Z,7.30
2018-05-17T04:41:09.197Z,7.50
2018-05-17T04:42:09.129Z,7.20
2018-05-17T04:43:09.064Z,7.00
2018-05-17T04:44:08.989Z,7.20
2018-05-17T04:45:08.926Z,7.20
2018-05-17T04:46:08.868Z,7.00
2018-05-17T04:47:08.819Z,7.50
2018-05-17T04:48:08.738Z,7.40
2018-05-17T04:49:08.652Z,7.40
2018-05-17T04:50:08.598Z,7.60
2018-05-17T04:51:08.528Z,7.40
2018-05-17T04:52:08.461Z,7.30
2018-05-17T04:53:08.398Z,7.30
2018-05-17T04:54:08.326Z,7.50
2018-05-17T04:55:08.279Z,7.30
2018-05-17T04:56:08.201Z,7.20
2018-05-17T04:57:08.138Z,7.80
2018-05-17T04:58:08.058Z,7.80
2018-05-17T04:59:08.011Z,7.70
2018-05-17T05:00:07.924Z,7.40
2018-05-17T05:01:07.874Z,8.20
2018-05-17T05:02:07.812Z,7.70
2018-05-17T05:03:07.733Z,7.90
2018-05-17T05:04:07.667Z,8.00
2018-05-17T05:05:07.599Z,7.70
2018-05-17T05:06:07.546Z,7.70
2018-05-17T05:07:07.465Z,7.90
2018-05-17T05:08:07.394Z,7.50
2018-05-17T05:09:07.345Z,7.80
2018-05-17T05:10:07.276Z,8.00
2018-05-17T05:11:07.209Z,7.80
2018-05-17T05:12:07.133Z,7.30
2018-05-17T05:13:07.081Z,7.60
2018-05-17T05:14:07.007Z,7.80
2018-05-17T05:15:06.944Z,7.40
2018-05-17T05:16:06.874Z,6.90
2018-05-17T05:17:06.829Z,7.20
2018-05-17T05:18:06.731Z,7.90
2018-05-17T05:19:06.677Z,7.50
2018-05-17T05:20:06.608Z,7.30
2018-05-17T05:21:06.545Z,7.40
2018-05-17T05:22:06.467Z,7.00
2018-05-17T05:23:06.408Z,7.60
2018-05-17T05:24:06.353Z,7.40
2018-05-17T05:25:06.281Z,7.50
2018-05-17T05:26:06.207Z,7.90
2018-05-17T05:27:06.149Z,7.20
2018-05-17T05:28:06.072Z,7.30
2018-05-17T05:29:06.022Z,7.70
2018-05-17T05:30:05.947Z,7.80
2018-05-17T05:31:05.886Z,7.30
2018-05-17T05:32:05.814Z,7.00
2018-05-17T05:33:05.749Z,7.40
2018-05-17T05:34:05.671Z,7.40
2018-05-17T05:35:05.624Z,7.10
2018-05-17T05:36:05.540Z,7.30
2018-05-17T05:37:05.484Z,7.30
2018-05-17T05:38:05.421Z,7.50
2018-05-17T05:39:05.358Z,6.90
2018-05-17T05:40:05.289Z,7.30
2018-05-17T05:41:05.211Z,7.00
2018-05-17T05:42:05.144Z,7.40
2018-05-17T05:43:05.088Z,7.40
2018-05-17T05:44:05.029Z,7.00
2018-05-17T05:45:04.944Z,7.30
2018-05-17T05:46:04.906Z,7.60
2018-05-17T05:47:04.816Z,7.00
2018-05-17T05:48:04.757Z,7.60
2018-05-17T05:49:04.701Z,7.00
2018-05-17T05:50:04.628Z,7.50
2018-05-17T05:51:04.561Z,7.30
2018-05-17T05:52:04.494Z,7.00
2018-05-17T05:53:04.433Z,6.80
2018-05-17T05:54:04.379Z,6.70
2018-05-17T05:55:04.299Z,7.20
2018-05-17T05:56:04.254Z,7.00
2018-05-17T05:57:04.168Z,7.20
2018-05-17T05:58:04.094Z,7.70
2018-05-17T05:59:04.027Z,7.10
2018-05-17T06:00:03.975Z,7.50
2018-05-17T06:01:03.896Z,7.50
2018-05-17T06:02:03.830Z,7.70
2018-05-17T06:03:03.767Z,6.90
2018-05-17T06:04:03.705Z,6.90
2018-05-17T06:05:03.651Z,7.30
2018-05-17T06:06:03.567Z,7.00
2018-05-17T06:07:03.512Z,6.80
2018-05-17T06:08:03.449Z,7.00
2018-05-17T06:09:03.371Z,7.10
2018-05-17T06:10:03.315Z,6.90
2018-05-17T06:11:03.255Z,7.00
2018-05-17T06:12:03.180Z,6.90
2018-05-17T06:13:03.109Z,7.10
2018-05-17T06:14:03.045Z,7.30
2018-05-17T06:15:02.978Z,7.30
2018-05-17T06:16:02.910Z,6.90
2018-05-17T06:17:02.854Z,7.00
2018-05-17T06:18:02.776Z,7.00
2018-05-17T06:19:02.718Z,6.70
2018-05-17T06:20:02.653Z,7.20
2018-05-17T06:21:02.591Z,6.90
2018-05-17T06:22:02.533Z,6.70
2018-05-17T06:23:02.459Z,6.60
2018-05-17T06:24:02.390Z,6.50
2018-05-17T06:25:02.325Z,6.60
2018-05-17T06:26:02.281Z,7.10
2018-05-17T06:27:02.210Z,6.90
2018-05-17T06:28:02.155Z,7.00
2018-05-17T06:29:02.064Z,6.80
2018-05-17T06:30:01.998Z,6.90
2018-05-17T06:31:01.948Z,6.50
2018-05-17T06:32:01.876Z,6.80
2018-05-17T06:33:01.808Z,7.00
2018-05-17T06:34:01.742Z,6.50
2018-05-17T06:35:01.683Z,6.70
2018-05-17T06:36:01.612Z,6.50
2018-05-17T06:37:01.568Z,6.80
2018-05-17T06:38:01.494Z,6.80
2018-05-17T06:39:01.426Z,6.80
2018-05-17T06:40:01.364Z,6.70
2018-05-17T06:41:01.303Z,6.90
2018-05-17T06:42:01.236Z,7.10
2018-05-17T06:43:01.171Z,6.80
2018-05-17T06:44:01.143Z,6.60
2018-05-17T06:45:01.038Z,7.10
2018-05-17T06:46:00.975Z,6.80
2018-05-17T06:47:00.900Z,6.70
2018-05-17T06:48:00.865Z,7.10
2018-05-17T06:49:00.783Z,7.00
2018-05-17T06:50:00.712Z,6.80
2018-05-17T06:51:00.646Z,6.50
2018-05-17T06:52:00.583Z,7.00
2018-05-17T06:53:00.513Z,7.10
2018-05-17T06:54:00.464Z,6.90
2018-05-17T06:55:00.405Z,6.70
2018-05-17T06:56:00.330Z,7.10
2018-05-17T06:57:00.265Z,7.00
2018-05-17T06:58:00.197Z,6.70
2018-05-17T06:59:00.130Z,6.70
2018-05-17T07:00:00.078Z,6.60
2018-05-17T07:01:00.029Z,6.70
2018-05-17T07:01:59.934Z,6.50
2018-05-17T07:02:59.878Z,7.40
2018-05-17T07:03:59.815Z,6.90
2018-05-17T07:04:59.752Z,7.00
2018-05-17T07:05:59.696Z,6.80
2018-05-17T07:06:59.627Z,6.70
2018-05-17T07:07:59.565Z,6.80
2018-05-17T07:08:59.489Z,6.60
2018-05-17T07:09:59.432Z,7.40
2018-05-17T07:10:59.360Z,6.90
2018-05-17T07:11:59.297Z,7.00
2018-05-17T07:12:59.225Z,7.00
2018-05-17T07:13:59.157Z,7.10
2018-05-17T07:14:59.118Z,7.10
2018-05-17T07:15:59.047Z,7.00
2018-05-17T07:16:58.978Z,7.40
2018-05-17T07:17:59.101Z,7.40
2018-05-17T07:18:58.858Z,7.50
2018-05-17T07:19:58.790Z,7.00
2018-05-17T07:20:58.722Z,7.10
2018-05-17T07:21:58.656Z,7.60
2018-05-17T07:22:58.593Z,7.30
2018-05-17T07:23:58.524Z,7.20
2018-05-17T07:24:58.460Z,7.10
2018-05-17T07:25:58.394Z,7.40
2018-05-17T07:26:58.333Z,7.70
2018-05-17T07:27:58.272Z,7.50
2018-05-17T07:28:58.228Z,7.70
2018-05-17T07:29:58.246Z,8.20
2018-05-17T07:30:58.086Z,7.80
2018-05-17T07:31:58.004Z,8.00
2018-05-17T07:32:57.947Z,7.60
2018-05-17T07:33:57.888Z,7.90
2018-05-17T07:34:57.827Z,8.40
2018-05-17T07:35:57.757Z,8.10
2018-05-17T07:36:57.686Z,8.00
2018-05-17T07:37:57.624Z,7.70
2018-05-17T07:38:57.564Z,7.70
2018-05-17T07:39:57.492Z,8.40
2018-05-17T07:40:57.437Z,8.10
2018-05-17T07:41:57.360Z,7.90
2018-05-17T07:42:57.293Z,8.30
2018-05-17T07:43:57.249Z,8.30
2018-05-17T07:44:57.177Z,8.00
2018-05-17T07:45:57.123Z,8.00
2018-05-17T07:46:57.048Z,8.10
2018-05-17T07:47:56.976Z,7.80
2018-05-17T07:48:56.910Z,8.20
2018-05-17T07:49:56.842Z,8.10
2018-05-17T07:50:56.787Z,8.00
2018-05-17T07:51:56.732Z,8.10
2018-05-17T07:52:56.654Z,8.00
2018-05-17T07:53:56.587Z,7.80
2018-05-17T07:54:56.543Z,7.90
2018-05-17T07:55:56.456Z,8.10
2018-05-17T07:56:56.414Z,8.10
2018-05-17T07:57:56.337Z,8.00
2018-05-17T07:58:56.278Z,7.90
2018-05-17T07:59:56.201Z,8.20
2018-05-17T08:00:56.147Z,8.40
2018-05-17T08:01:56.083Z,8.20
2018-05-17T08:02:56.025Z,7.70
2018-05-17T08:03:55.950Z,8.20
2018-05-17T08:04:55.916Z,7.80
2018-05-17T08:05:55.833Z,8.50
2018-05-17T08:06:55.755Z,7.90
2018-05-17T08:07:55.698Z,8.20
2018-05-17T08:08:55.621Z,8.70
2018-05-17T08:09:55.559Z,7.80
2018-05-17T08:10:55.506Z,8.00
2018-05-17T08:11:55.447Z,8.10
2018-05-17T08:12:55.379Z,7.20
2018-05-17T08:13:55.310Z,7.80
2018-05-17T08:14:55.254Z,7.80
2018-05-17T08:15:55.182Z,8.30
2018-05-17T08:16:55.126Z,8.10
2018-05-17T08:17:55.069Z,7.90
2018-05-17T08:18:54.980Z,8.10
2018-05-17T08:19:54.919Z,7.70
2018-05-17T08:20:54.862Z,8.40
2018-05-17T08:21:54.797Z,8.00
2018-05-17T08:22:54.726Z,7.90
2018-05-17T08:23:54.661Z,8.20
2018-05-17T08:24:54.607Z,7.80
2018-05-17T08:25:54.544Z,8.30
2018-05-17T08:26:54.481Z,8.40
2018-05-17T08:27:54.417Z,7.50
2018-05-17T08:28:54.439Z,7.60
2018-05-17T08:29:54.296Z,8.10
2018-05-17T08:30:54.227Z,8.10
2018-05-17T08:31:54.159Z,8.10
2018-05-17T08:32:54.099Z,7.10
2018-05-17T08:33:54.043Z,7.30
2018-05-17T08:34:54.011Z,7.20
2018-05-17T08:35:53.911Z,6.90
2018-05-17T08:36:53.850Z,6.90
2018-05-17T08:37:53.784Z,6.70
2018-05-17T08:38:53.714Z,6.90
2018-05-17T08:39:53.662Z,6.70
2018-05-17T08:40:53.612Z,6.80
2018-05-17T08:41:53.533Z,6.80
2018-05-17T08:42:53.462Z,6.60
2018-05-17T08:43:53.410Z,6.60
2018-05-17T08:44:53.349Z,6.40
2018-05-17T08:45:53.287Z,6.60
2018-05-17T08:46:53.206Z,6.60
2018-05-17T08:47:53.159Z,6.40
2018-05-17T08:48:53.083Z,6.10
2018-05-17T08:49:53.028Z,6.20
2018-05-17T08:50:52.964Z,6.40
2018-05-17T08:51:52.900Z,6.30
2018-05-17T08:52:52.831Z,6.80
2018-05-17T08:53:52.779Z,6.40
2018-05-17T08:54:52.704Z,6.30
2018-05-17T08:55:52.649Z,6.20
2018-05-17T08:56:52.577Z,6.00
2018-05-17T08:57:52.528Z,6.10
2018-05-17T08:58:52.456Z,5.70
2018-05-17T08:59:52.399Z,6.10
2018-05-17T09:00:52.333Z,6.10
2018-05-17T09:01:52.277Z,6.10
2018-05-17T09:02:52.210Z,6.10
2018-05-17T09:03:52.134Z,6.50
2018-05-17T09:04:52.072Z,6.00
2018-05-17T09:05:52.023Z,6.00
2018-05-17T09:06:51.959Z,6.00
2018-05-17T09:07:51.898Z,5.70
2018-05-17T09:08:51.828Z,6.10
2018-05-17T09:09:51.770Z,6.00
2018-05-17T09:10:51.696Z,5.70
2018-05-17T09:11:51.645Z,6.10
2018-05-17T09:12:51.591Z,5.70
2018-05-17T09:13:51.521Z,5.50
2018-05-17T09:14:51.492Z,5.50
2018-05-17T09:15:51.385Z,5.60
2018-05-17T09:16:51.335Z,5.30
2018-05-17T09:17:51.265Z,5.30
2018-05-17T09:18:51.189Z,5.30
2018-05-17T09:19:51.139Z,5.40
2018-05-17T09:20:51.081Z,5.30
2018-05-17T09:21:51.014Z,5.10
2018-05-17T09:22:50.949Z,5.20
2018-05-17T09:23:50.878Z,4.90
2018-05-17T09:24:50.831Z,5.60
2018-05-17T09:25:50.764Z,5.50
2018-05-17T09:26:50.696Z,5.20
2018-05-17T09:27:50.640Z,5.20
2018-05-17T09:28:50.569Z,5.20
2018-05-17T09:29:50.505Z,5.10
2018-05-17T09:30:50.435Z,5.10
2018-05-17T09:31:50.392Z,6.50
2018-05-17T09:32:50.323Z,8.50
2018-05-17T09:33:50.259Z,8.30
2018-05-17T09:34:50.203Z,6.70
2018-05-17T09:35:50.124Z,6.50
2018-05-17T09:36:50.078Z,6.10
2018-05-17T09:37:50.012Z,5.30
2018-05-17T09:38:49.952Z,5.40
2018-05-17T09:39:49.915Z,6.00
2018-05-17T09:40:49.828Z,5.40
2018-05-17T09:41:49.774Z,5.50
2018-05-17T09:42:49.698Z,5.40
2018-05-17T09:43:49.635Z,5.80
2018-05-17T09:44:49.579Z,5.70
2018-05-17T09:45:49.499Z,5.10
2018-05-17T09:46:49.457Z,5.40
2018-05-17T09:47:49.395Z,5.60
2018-05-17T09:48:49.329Z,5.50
2018-05-17T09:49:49.261Z,6.00
2018-05-17T09:50:49.194Z,6.40
2018-05-17T09:51:49.135Z,6.60
2018-05-17T09:52:49.070Z,6.20
2018-05-17T09:53:49.013Z,5.70
2018-05-17T09:54:48.941Z,5.50
2018-05-17T09:55:48.875Z,5.80
2018-05-17T09:56:48.824Z,5.50
2018-05-17T09:57:48.760Z,6.00
2018-05-17T09:58:48.702Z,5.50
2018-05-17T09:59:48.627Z,5.90
2018-05-17T10:00:48.583Z,5.90
2018-05-17T10:01:48.508Z,5.80
2018-05-17T10:02:48.450Z,5.70
2018-05-17T10:03:48.388Z,5.30
2018-05-17T10:04:48.333Z,6.10
2018-05-17T10:05:48.266Z,5.50
2018-05-17T10:06:48.193Z,5.70
2018-05-17T10:07:48.143Z,6.00
2018-05-17T10:08:48.086Z,5.70
2018-05-17T10:09:48.022Z,6.10
2018-05-17T10:10:47.950Z,5.70
2018-05-17T10:11:47.884Z,6.10
2018-05-17T10:12:47.836Z,5.70
2018-05-17T10:13:47.793Z,6.00
2018-05-17T10:14:47.701Z,5.90
2018-05-17T10:15:47.636Z,5.80
2018-05-17T10:16:47.583Z,5.90
2018-05-17T10:17:47.522Z,5.60
2018-05-17T10:18:47.473Z,5.50
2018-05-17T10:19:47.398Z,6.10
2018-05-17T10:20:47.338Z,6.10
2018-05-17T10:21:47.314Z,6.10
2018-05-17T10:22:47.212Z,5.60
2018-05-17T10:23:47.145Z,5.60
2018-05-17T10:24:47.091Z,5.30
2018-05-17T10:25:47.081Z,5.10
2018-05-17T10:26:46.962Z,5.30
2018-05-17T10:27:46.901Z,4.90
2018-05-17T10:28:46.839Z,5.00
2018-05-17T10:29:46.820Z,5.40
2018-05-17T10:30:46.723Z,5.10
2018-05-17T10:31:46.640Z,5.40
2018-05-17T10:32:46.584Z,5.80
2018-05-17T10:33:46.523Z,5.90
2018-05-17T10:34:46.462Z,5.20
2018-05-17T10:35:46.403Z,5.40
2018-05-17T10:36:46.345Z,5.40
2018-05-17T10:37:46.274Z,5.70
2018-05-17T10:38:46.222Z,5.80
2018-05-17T10:39:46.148Z,5.70
2018-05-17T10:40:46.084Z,5.90
2018-05-17T10:41:46.041Z,6.20
2018-05-17T10:42:45.970Z,6.30
2018-05-17T10:43:45.913Z,5.90
2018-05-17T10:44:45.890Z,5.80
2018-05-17T10:45:45.787Z,6.10
2018-05-17T10:46:45.715Z,6.20
2018-05-17T10:47:45.663Z,6.10
2018-05-17T10:48:45.596Z,6.00
2018-05-17T10:49:45.548Z,5.70
2018-05-17T10:50:45.477Z,5.80
2018-05-17T10:51:45.408Z,5.90
2018-05-17T10:52:45.355Z,5.50
2018-05-17T10:53:45.275Z,5.80
2018-05-17T10:54:45.236Z,5.50
2018-05-17T10:55:45.169Z,5.70
2018-05-17T10:56:45.115Z,5.70
2018-05-17T10:57:45.035Z,5.50
2018-05-17T10:58:44.983Z,5.70
2018-05-17T10:59:44.909Z,5.90
2018-05-17T11:00:44.850Z,5.50
2018-05-17T11:01:44.779Z,5.80
2018-05-17T11:02:44.726Z,5.70
2018-05-17T11:03:44.662Z,5.40
2018-05-17T11:04:44.625Z,5.40
2018-05-17T11:05:44.547Z,5.60
2018-05-17T11:06:44.472Z,5.20
2018-05-17T11:07:44.424Z,5.50
2018-05-17T11:08:44.355Z,5.90
2018-05-17T11:09:44.296Z,6.70
2018-05-17T11:10:44.234Z,5.60
2018-05-17T11:11:44.173Z,6.20
2018-05-17T11:12:44.115Z,6.50
2018-05-17T11:13:44.050Z,6.50
2018-05-17T11:14:43.978Z,5.80
2018-05-17T11:15:43.916Z,5.90
2018-05-17T11:16:43.866Z,6.30
2018-05-17T11:17:43.806Z,5.90
2018-05-17T11:18:43.783Z,5.30
2018-05-17T11:19:43.691Z,6.00
2018-05-17T11:20:43.612Z,5.70
2018-05-17T11:21:43.546Z,5.30
2018-05-17T11:22:43.493Z,5.70
2018-05-17T11:23:43.428Z,5.50
2018-05-17T11:24:43.374Z,5.70
2018-05-17T11:25:43.296Z,5.70
2018-05-17T11:26:43.247Z,6.20
2018-05-17T11:27:43.178Z,6.10
2018-05-17T11:28:43.116Z,5.40
2018-05-17T11:29:43.051Z,6.10
2018-05-17T11:30:43.000Z,6.20
2018-05-17T11:31:42.930Z,6.50
2018-05-17T11:32:42.874Z,6.60
2018-05-17T11:33:42.849Z,5.90
2018-05-17T11:34:42.748Z,5.60
2018-05-17T11:35:42.678Z,5.30
2018-05-17T11:36:42.622Z,5.60
2018-05-17T11:37:42.581Z,5.90
2018-05-17T11:38:42.496Z,5.60
2018-05-17T11:39:42.441Z,5.90
2018-05-17T11:40:42.376Z,5.50
2018-05-17T11:41:42.317Z,5.60
2018-05-17T11:42:42.242Z,5.40
2018-05-17T11:43:42.184Z,5.30
2018-05-17T11:44:42.131Z,5.80
2018-05-17T11:45:42.141Z,5.40
2018-05-17T11:46:42.011Z,5.30
2018-05-17T11:47:41.946Z,5.10
2018-05-17T11:48:41.880Z,5.20
2018-05-17T11:49:41.836Z,5.70
2018-05-17T11:50:41.756Z,5.20
2018-05-17T11:51:41.708Z,5.20
2018-05-17T11:52:41.650Z,4.70
2018-05-17T11:53:41.589Z,4.50
2018-05-17T11:54:41.506Z,4.80
2018-05-17T11:55:41.469Z,5.00
2018-05-17T11:56:41.390Z,4.80
2018-05-17T11:57:41.324Z,4.80
2018-05-17T11:58:41.271Z,4.80
2018-05-17T11:59:41.200Z,5.00
2018-05-17T12:00:41.153Z,4.80
2018-05-17T12:01:41.094Z,5.30
2018-05-17T12:02:41.041Z,5.10
2018-05-17T12:03:40.953Z,4.60
2018-05-17T12:04:40.901Z,5.10
2018-05-17T12:05:40.844Z,4.80
2018-05-17T12:06:40.771Z,4.50
2018-05-17T12:07:40.708Z,4.50
2018-05-17T12:08:40.651Z,5.20
2018-05-17T12:09:40.593Z,4.80
2018-05-17T12:10:40.525Z,4.40
2018-05-17T12:11:40.461Z,5.20
2018-05-17T12:12:40.409Z,4.90
2018-05-17T12:13:40.349Z,4.80
2018-05-17T12:14:40.289Z,4.80
2018-05-17T12:15:40.219Z,4.60
2018-05-17T12:16:40.166Z,4.80
2018-05-17T12:17:40.102Z,4.30
2018-05-17T12:18:40.028Z,4.30
2018-05-17T12:19:39.967Z,4.30
2018-05-17T12:20:39.951Z,4.60
2018-05-17T12:21:39.851Z,4.00
2018-05-17T12:22:39.796Z,3.90
2018-05-17T12:23:39.759Z,4.20
2018-05-17T12:24:39.667Z,4.30
2018-05-17T12:25:39.618Z,4.00
2018-05-17T12:26:39.546Z,4.10
2018-05-17T12:27:39.483Z,4.20
2018-05-17T12:28:39.413Z,3.80
2018-05-17T12:29:39.365Z,3.60
2018-05-17T12:30:39.305Z,3.60
2018-05-17T12:31:39.349Z,3.30
2018-05-17T12:32:39.181Z,3.20
2018-05-17T12:33:39.113Z,3.30
2018-05-17T12:34:39.055Z,3.50
2018-05-17T12:35:39.060Z,4.00
2018-05-17T12:36:38.921Z,4.20
2018-05-17T12:37:38.876Z,3.60
2018-05-17T12:38:38.809Z,3.50
2018-05-17T12:39:38.743Z,3.30
2018-05-17T12:40:38.679Z,3.70
2018-05-17T12:41:38.620Z,3.10
2018-05-17T12:42:38.570Z,3.40
2018-05-17T12:43:38.507Z,3.50
2018-05-17T12:44:38.445Z,3.30
2018-05-17T12:45:38.379Z,3.50
2018-05-17T12:46:38.330Z,3.30
2018-05-17T12:47:38.303Z,3.30
2018-05-17T12:48:38.196Z,3.30
2018-05-17T12:49:38.130Z,3.80
2018-05-17T12:50:38.064Z,3.70
2018-05-17T12:51:38.013Z,3.90
2018-05-17T12:52:37.951Z,3.80
2018-05-17T12:53:37.893Z,3.80
2018-05-17T12:54:37.822Z,4.10
2018-05-17T12:55:37.758Z,4.00
2018-05-17T12:56:37.708Z,4.00
2018-05-17T12:57:37.639Z,3.80
2018-05-17T12:58:37.665Z,3.70
2018-05-17T12:59:37.528Z,3.70
2018-05-17T13:00:37.456Z,3.80
2018-05-17T13:01:37.394Z,3.20
2018-05-17T13:02:37.331Z,3.50
2018-05-17T13:03:37.276Z,3.70
2018-05-17T13:04:37.201Z,3.90
2018-05-17T13:05:37.162Z,3.90
2018-05-17T13:06:37.099Z,3.70
2018-05-17T13:07:37.034Z,3.40
2018-05-17T13:08:36.969Z,3.70
2018-05-17T13:09:36.915Z,3.60
2018-05-17T13:10:36.863Z,3.60
2018-05-17T13:11:36.777Z,3.20
2018-05-17T13:12:36.718Z,3.40
2018-05-17T13:13:36.669Z,3.20
2018-05-17T13:14:36.601Z,3.00
2018-05-17T13:15:36.537Z,3.40
2018-05-17T13:16:36.487Z,3.30
2018-05-17T13:17:36.423Z,3.20